createdAt,value
2022-08-20T00:02:15.261Z,97293.00
2022-08-20T00:04:45.446Z,97300.72
2022-08-20T00:07:14.399Z,97306.78
2022-08-20T00:09:43.329Z,97310.16
2022-08-20T00:12:13.668Z,97312.47
2022-08-20T00:14:42.762Z,97321.59
2022-08-20T00:17:11.152Z,97329.28
2022-08-20T00:19:39.585Z,97320.00
2022-08-20T00:22:09.369Z,97325.63
2022-08-20T00:24:37.680Z,97323.59
2022-08-20T00:27:05.994Z,97328.56
2022-08-20T00:29:34.352Z,97324.22
2022-08-20T00:32:02.717Z,97328.16
2022-08-20T00:34:31.007Z,97324.03
2022-08-20T00:36:59.327Z,97325.53
2022-08-20T00:39:29.046Z,97325.38
2022-08-20T00:41:57.390Z,97332.66
2022-08-20T00:44:25.718Z,97336.59
2022-08-20T00:46:55.524Z,97338.06
2022-08-20T00:49:28.540Z,97334.56
2022-08-20T00:52:03.728Z,97335.22
2022-08-20T00:54:46.589Z,97331.94
2022-08-20T00:57:24.529Z,97333.38
2022-08-20T00:59:54.129Z,97332.81
2022-08-20T01:02:27.572Z,97341.31
2022-08-20T01:04:57.002Z,97334.47
2022-08-20T01:10:11.858Z,97324.75
2022-08-20T01:12:43.473Z,97322.06
2022-08-20T01:15:16.612Z,97319.81
2022-08-20T01:17:52.818Z,97325.63
2022-08-20T01:20:28.085Z,97333.72
2022-08-20T01:23:30.131Z,97331.66
2022-08-20T01:26:07.047Z,97335.84
2022-08-20T01:28:43.633Z,97329.03
2022-08-20T01:31:16.700Z,97331.09
2022-08-20T01:33:47.337Z,97333.19
2022-08-20T01:36:18.466Z,97343.16
2022-08-20T01:38:54.224Z,97339.63
2022-08-20T01:41:50.680Z,97350.44
2022-08-20T01:44:20.038Z,97348.97
2022-08-20T01:46:51.308Z,97359.75
2022-08-20T01:49:23.946Z,97352.72
2022-08-20T01:51:54.154Z,97348.19
2022-08-20T01:54:23.709Z,97354.81
2022-08-20T01:56:57.897Z,97355.00
2022-08-20T01:59:26.341Z,97352.75
2022-08-20T02:01:55.770Z,97351.94
2022-08-20T02:04:24.680Z,97353.19
2022-08-20T02:06:57.664Z,97358.78
2022-08-20T02:09:27.665Z,97362.50
2022-08-20T02:11:58.552Z,97369.97
2022-08-20T02:14:28.074Z,97378.88
2022-08-20T02:16:58.381Z,97377.81
2022-08-20T02:19:31.272Z,97372.44
2022-08-20T02:22:06.419Z,97373.09
2022-08-20T02:24:35.523Z,97370.59
2022-08-20T02:27:05.412Z,97372.50
2022-08-20T02:29:33.834Z,97360.06
2022-08-20T02:32:32.508Z,97362.97
2022-08-20T02:34:50.939Z,97366.75
2022-08-20T02:37:19.375Z,97373.16
2022-08-20T02:39:48.368Z,97369.66
2022-08-20T02:42:18.186Z,97370.88
2022-08-20T02:44:46.520Z,97372.97
2022-08-20T02:47:14.938Z,97360.53
2022-08-20T02:49:43.250Z,97376.09
2022-08-20T02:52:11.758Z,97372.78
2022-08-20T02:54:40.075Z,97361.41
2022-08-20T02:57:14.107Z,97366.59
2022-08-20T02:59:45.248Z,97375.28
2022-08-20T03:02:13.777Z,97372.41
2022-08-20T03:04:42.866Z,97376.53
2022-08-20T03:07:12.212Z,97378.16
2022-08-20T03:09:41.202Z,97373.84
2022-08-20T03:12:10.061Z,97379.63
2022-08-20T03:14:38.932Z,97388.13
2022-08-20T03:17:08.760Z,97386.44
2022-08-20T03:19:37.119Z,97381.06
2022-08-20T03:22:06.126Z,97381.91
2022-08-20T03:24:34.441Z,97373.63
2022-08-20T03:27:02.751Z,97381.47
2022-08-20T03:29:31.118Z,97372.56
2022-08-20T03:31:59.503Z,97381.47
2022-08-20T03:34:29.311Z,97375.47
2022-08-20T03:36:57.638Z,97378.16
2022-08-20T03:39:25.963Z,97374.06
2022-08-20T03:41:54.238Z,97386.25
2022-08-20T03:44:22.548Z,97384.81
2022-08-20T03:46:50.997Z,97386.25
2022-08-20T03:49:19.369Z,97398.66
2022-08-20T03:51:58.244Z,97389.97
2022-08-20T03:54:31.629Z,97397.84
2022-08-20T03:57:02.308Z,97404.25
2022-08-20T03:59:33.036Z,97401.78
2022-08-20T04:02:01.743Z,97405.06
2022-08-20T04:04:30.151Z,97412.13
2022-08-20T04:06:59.932Z,97404.25
2022-08-20T04:09:28.948Z,97400.53
2022-08-20T04:12:00.974Z,97405.06
2022-08-20T04:14:30.073Z,97412.34
2022-08-20T04:16:59.005Z,97410.66
2022-08-20T04:19:32.433Z,97410.06
2022-08-20T04:22:04.066Z,97409.44
2022-08-20T04:24:32.806Z,97410.91
2022-08-20T04:27:02.774Z,97426.63
2022-08-20T04:29:35.001Z,97420.81
2022-08-20T04:32:06.129Z,97421.66
2022-08-20T04:34:35.725Z,97433.44
2022-08-20T04:37:06.628Z,97425.78
2022-08-20T04:40:06.269Z,97433.66
2022-08-20T04:42:36.955Z,97432.00
2022-08-20T04:45:07.747Z,97435.53
2022-08-20T04:47:36.561Z,97428.69
2022-08-20T04:50:06.376Z,97424.53
2022-08-20T04:52:37.794Z,97428.25
2022-08-20T04:55:07.582Z,97427.25
2022-08-20T04:57:38.369Z,97430.75
2022-08-20T05:00:11.159Z,97423.94
2022-08-20T05:02:39.576Z,97441.72
2022-08-20T05:05:08.980Z,97438.81
2022-08-20T05:07:43.289Z,97449.78
2022-08-20T05:10:15.116Z,97447.31
2022-08-20T05:12:43.973Z,97452.47
2022-08-20T05:15:26.161Z,97450.84
2022-08-20T05:18:00.667Z,97458.91
2022-08-20T05:20:30.615Z,97462.59
2022-08-20T05:23:00.985Z,97449.56
2022-08-20T05:25:30.578Z,97461.34
2022-08-20T05:28:00.671Z,97469.00
2022-08-20T05:30:34.136Z,97464.66
2022-08-20T05:33:03.446Z,97458.44
2022-08-20T05:35:34.436Z,97467.78
2022-08-20T05:38:04.240Z,97475.44
2022-08-20T05:40:32.927Z,97480.81
2022-08-20T05:43:04.615Z,97478.94
2022-08-20T05:45:33.704Z,97480.38
2022-08-20T05:48:06.520Z,97483.88
2022-08-20T05:50:35.746Z,97482.88
2022-08-20T05:53:05.536Z,97471.47
2022-08-20T05:55:34.012Z,97473.34
2022-08-20T05:58:05.447Z,97464.63
2022-08-20T06:00:36.339Z,97466.69
2022-08-20T06:03:22.108Z,97462.94
2022-08-20T06:05:51.021Z,97474.56
2022-08-20T06:08:20.814Z,97481.38
2022-08-20T06:10:49.183Z,97474.13
2022-08-20T06:13:17.507Z,97470.19
2022-08-20T06:15:45.914Z,97468.31
2022-08-20T06:18:27.852Z,97481.56
2022-08-20T06:20:57.304Z,97486.75
2022-08-20T06:23:27.620Z,97476.56
2022-08-20T06:26:15.998Z,97472.03
2022-08-20T06:28:54.088Z,97484.84
2022-08-20T06:31:23.157Z,97478.19
2022-08-20T06:33:51.552Z,97479.44
2022-08-20T06:36:20.336Z,97481.72
2022-08-20T06:38:50.325Z,97476.53
2022-08-20T06:41:18.769Z,97488.34
2022-08-20T06:43:47.095Z,97478.22
2022-08-20T06:46:15.736Z,97497.22
2022-08-20T06:48:44.190Z,97487.06
2022-08-20T06:51:12.560Z,97493.06
2022-08-20T06:53:41.162Z,97497.44
2022-08-20T06:56:10.939Z,97497.81
2022-08-20T06:58:39.424Z,97500.91
2022-08-20T07:01:10.125Z,97497.16
2022-08-20T07:03:39.373Z,97501.75
2022-08-20T07:06:11.189Z,97502.75
2022-08-20T07:08:40.393Z,97505.22
2022-08-20T07:11:10.883Z,97509.97
2022-08-20T07:13:40.969Z,97506.00
2022-08-20T07:16:09.334Z,97513.88
2022-08-20T07:18:37.722Z,97509.31
2022-08-20T07:21:06.423Z,97509.94
2022-08-20T07:23:36.383Z,97509.75
2022-08-20T07:26:05.496Z,97514.91
2022-08-20T07:28:35.495Z,97510.13
2022-08-20T07:31:21.432Z,97509.09
2022-08-20T07:33:50.327Z,97513.22
2022-08-20T07:36:19.694Z,97517.13
2022-08-20T07:38:51.103Z,97521.28
2022-08-20T07:41:21.450Z,97523.97
2022-08-20T07:43:51.198Z,97522.72
2022-08-20T07:46:22.505Z,97526.84
2022-08-20T07:48:52.367Z,97532.84
2022-08-20T07:51:23.246Z,97533.66
2022-08-20T07:53:52.838Z,97532.41
2022-08-20T07:56:24.742Z,97542.97
2022-08-20T07:58:59.019Z,97546.47
2022-08-20T08:01:31.779Z,97548.16
2022-08-20T08:04:01.261Z,97537.97
2022-08-20T08:06:31.434Z,97535.06
2022-08-20T08:09:08.497Z,97540.44
2022-08-20T08:11:46.498Z,97536.53
2022-08-20T08:14:23.465Z,97544.63
2022-08-20T08:16:52.739Z,97547.09
2022-08-20T08:19:21.415Z,97553.09
2022-08-20T08:21:50.333Z,97556.41
2022-08-20T08:24:21.813Z,97548.31
2022-08-20T08:26:52.532Z,97557.25
2022-08-20T08:29:22.229Z,97549.75
2022-08-20T08:31:50.561Z,97547.66
2022-08-20T08:34:18.844Z,97560.09
2022-08-20T08:36:47.293Z,97563.63
2022-08-20T08:39:16.266Z,97560.72
2022-08-20T08:41:49.733Z,97560.72
2022-08-20T08:44:23.718Z,97568.59
2022-08-20T08:46:56.584Z,97572.94
2022-08-20T08:49:33.939Z,97570.22
2022-08-20T08:52:12.327Z,97566.31
2022-08-20T08:54:47.385Z,97570.63
2022-08-20T08:57:16.737Z,97575.81
2022-08-20T09:00:03.504Z,97565.88
2022-08-20T09:02:35.359Z,97572.06
2022-08-20T09:05:15.027Z,97567.28
2022-08-20T09:07:46.703Z,97571.63
2022-08-20T09:10:15.017Z,97581.41
2022-08-20T09:12:58.300Z,97585.53
2022-08-20T09:15:28.382Z,97572.03
2022-08-20T09:17:56.812Z,97577.22
2022-08-20T09:20:28.480Z,97578.06
2022-08-20T09:22:57.044Z,97578.63
2022-08-20T09:25:26.027Z,97592.13
2022-08-20T09:27:54.312Z,97581.34
2022-08-20T09:30:23.268Z,97591.06
2022-08-20T09:32:53.057Z,97587.34
2022-08-20T09:35:21.532Z,97582.19
2022-08-20T09:37:50.988Z,97582.19
2022-08-20T09:40:21.051Z,97592.13
2022-08-20T09:42:51.351Z,97591.06
2022-08-20T09:45:20.912Z,97589.44
2022-08-20T09:47:56.199Z,97587.56
2022-08-20T09:50:28.718Z,97581.34
2022-08-20T09:53:00.479Z,97584.03
2022-08-20T09:55:35.988Z,97588.59
2022-08-20T09:58:09.437Z,97592.13
2022-08-20T10:00:37.830Z,97591.28
2022-08-20T10:03:06.156Z,97584.88
2022-08-20T10:05:35.823Z,97587.34
2022-08-20T10:08:07.697Z,97594.59
2022-08-20T10:10:36.662Z,97586.31
2022-08-20T10:13:05.400Z,97588.16
2022-08-20T10:15:34.495Z,97589.00
2022-08-20T10:18:07.877Z,97579.84
2022-08-20T10:20:38.113Z,97587.72
2022-08-20T10:23:06.725Z,97585.66
2022-08-20T10:25:35.232Z,97586.47
2022-08-20T10:28:04.447Z,97594.13
2022-08-20T10:30:32.865Z,97593.31
2022-08-20T10:33:01.181Z,97590.38
2022-08-20T10:35:29.878Z,97600.75
2022-08-20T10:37:59.813Z,97596.19
2022-08-20T10:40:28.341Z,97592.44
2022-08-20T10:42:56.687Z,97598.44
2022-08-20T10:45:37.632Z,97597.41
2022-08-20T10:48:08.661Z,97602.16
2022-08-20T10:50:37.816Z,97607.13
2022-08-20T10:53:07.446Z,97602.34
2022-08-20T10:55:35.756Z,97600.09
2022-08-20T10:58:06.937Z,97606.91
2022-08-20T11:00:36.154Z,97603.19
2022-08-20T11:03:04.762Z,97608.38
2022-08-20T11:05:33.230Z,97611.88
2022-08-20T11:08:06.316Z,97609.78
2022-08-20T11:10:38.158Z,97612.28
2022-08-20T11:13:08.761Z,97609.34
2022-08-20T11:15:39.957Z,97608.94
2022-08-20T11:18:08.981Z,97616.59
2022-08-20T11:20:37.771Z,97615.56
2022-08-20T11:23:07.571Z,97608.91
2022-08-20T11:25:35.898Z,97611.84
2022-08-20T11:28:04.643Z,97613.47
2022-08-20T11:30:37.442Z,97608.31
2022-08-20T11:33:06.671Z,97610.34
2022-08-20T11:35:49.215Z,97605.38
2022-08-20T11:38:20.054Z,97602.69
2022-08-20T11:40:48.522Z,97606.00
2022-08-20T11:43:17.831Z,97605.16
2022-08-20T11:45:49.160Z,97609.28
2022-08-20T11:48:17.941Z,97610.97
2022-08-20T11:50:47.053Z,97607.88
2022-08-20T11:53:15.464Z,97619.88
2022-08-20T11:55:45.714Z,97620.91
2022-08-20T11:58:14.034Z,97620.69
2022-08-20T12:00:42.489Z,97620.91
2022-08-20T12:03:12.016Z,97618.00
2022-08-20T12:05:42.862Z,97616.34
2022-08-20T12:08:27.159Z,97618.84
2022-08-20T12:10:59.120Z,97620.69
2022-08-20T12:13:30.861Z,97621.28
2022-08-20T12:16:16.341Z,97620.91
2022-08-20T12:18:44.640Z,97614.25
2022-08-20T12:21:13.114Z,97610.13
2022-08-20T12:23:41.368Z,97612.38
2022-08-20T12:26:11.044Z,97620.03
2022-08-20T12:28:39.482Z,97617.78
2022-08-20T12:31:07.983Z,97618.38
2022-08-20T12:33:36.364Z,97618.59
2022-08-20T12:36:06.058Z,97613.81
2022-08-20T12:38:34.408Z,97610.06
2022-08-20T12:41:02.704Z,97605.28
2022-08-20T12:43:32.353Z,97607.75
2022-08-20T12:46:00.712Z,97604.63
2022-08-20T12:48:29.234Z,97597.13
2022-08-20T12:50:57.532Z,97608.28
2022-08-20T12:53:25.875Z,97610.56
2022-08-20T12:55:54.208Z,97607.63
2022-08-20T12:58:22.607Z,97603.91
2022-08-20T13:00:52.593Z,97608.03
2022-08-20T13:03:21.452Z,97609.44
2022-08-20T13:05:50.059Z,97601.75
2022-08-20T13:08:19.361Z,97606.09
2022-08-20T13:10:48.417Z,97608.34
2022-08-20T13:13:20.576Z,97610.81
2022-08-20T13:15:52.003Z,97607.09
2022-08-20T13:18:21.362Z,97613.09
2022-08-20T13:20:50.688Z,97615.34
2022-08-20T13:23:19.263Z,97610.56
2022-08-20T13:25:47.611Z,97610.34
2022-08-20T13:28:15.918Z,97614.47
2022-08-20T13:30:44.281Z,97611.53
2022-08-20T13:33:13.984Z,97615.88
2022-08-20T13:35:42.339Z,97619.41
2022-08-20T13:38:10.715Z,97620.84
2022-08-20T13:40:39.100Z,97620.84
2022-08-20T13:43:07.792Z,97612.50
2022-08-20T13:45:42.501Z,97612.28
2022-08-20T13:48:14.829Z,97609.34
2022-08-20T13:50:46.898Z,97612.72
2022-08-20T13:53:17.213Z,97610.84
2022-08-20T13:55:46.095Z,97609.56
2022-08-20T13:58:14.664Z,97609.34
2022-08-20T14:00:43.038Z,97609.13
2022-08-20T14:03:11.875Z,97605.34
2022-08-20T14:05:44.038Z,97596.00
2022-08-20T14:08:13.839Z,97594.72
2022-08-20T14:10:43.412Z,97592.41
2022-08-20T14:13:15.578Z,97588.63
2022-08-20T14:15:45.000Z,97587.56
2022-08-20T14:18:15.373Z,97596.06
2022-08-20T14:20:46.099Z,97595.00
2022-08-20T14:23:15.163Z,97589.38
2022-08-20T14:25:47.256Z,97590.81
2022-08-20T14:28:18.564Z,97598.69
2022-08-20T14:30:52.972Z,97592.47
2022-08-20T14:33:23.166Z,97587.66
2022-08-20T14:35:54.016Z,97596.59
2022-08-20T14:38:22.762Z,97588.25
2022-08-20T14:40:51.490Z,97589.91
2022-08-20T14:43:20.349Z,97587.22
2022-08-20T14:45:48.789Z,97583.69
2022-08-20T14:48:17.333Z,97573.47
2022-08-20T14:50:46.000Z,97576.19
2022-08-20T14:53:15.889Z,97573.47
2022-08-20T14:55:44.535Z,97568.88
2022-08-20T14:58:15.120Z,97574.28
2022-08-20T15:00:44.832Z,97581.09
2022-08-20T15:03:14.406Z,97581.09
2022-08-20T15:05:42.988Z,97583.81
2022-08-20T15:08:12.622Z,97582.16
2022-08-20T15:10:43.283Z,97585.47
2022-08-20T15:13:11.674Z,97579.25
2022-08-20T15:15:40.547Z,97580.88
2022-08-20T15:18:09.363Z,97578.16
2022-08-20T15:20:38.817Z,97580.88
2022-08-20T15:23:07.812Z,97585.47
2022-08-20T15:25:38.083Z,97580.66
2022-08-20T15:28:10.574Z,97583.34
2022-08-20T15:30:42.168Z,97586.91
2022-08-20T15:33:11.626Z,97591.25
2022-08-20T15:35:40.274Z,97601.81
2022-08-20T15:38:08.882Z,97595.38
2022-08-20T15:40:37.411Z,97594.56
2022-08-20T15:43:07.818Z,97611.16
2022-08-20T15:45:37.520Z,97594.09
2022-08-20T15:48:14.086Z,97606.78
2022-08-20T15:51:00.506Z,97609.47
2022-08-20T15:53:36.739Z,97606.19
2022-08-20T15:56:16.855Z,97611.97
2022-08-20T15:58:58.900Z,97612.81
2022-08-20T16:01:39.482Z,97615.28
2022-08-20T16:04:29.362Z,97614.22
2022-08-20T16:07:08.177Z,97608.81
2022-08-20T16:09:54.606Z,97603.16
2022-08-20T16:12:33.749Z,97606.09
2022-08-20T16:15:10.015Z,97596.97
2022-08-20T16:17:45.776Z,97592.59
2022-08-20T16:20:22.785Z,97589.75
2022-08-20T16:22:55.274Z,97586.44
2022-08-20T16:25:29.111Z,97587.72
2022-08-20T16:28:12.338Z,97602.50
2022-08-20T16:30:46.707Z,97600.63
2022-08-20T16:33:22.901Z,97603.34
2022-08-20T16:35:56.481Z,97611.22
2022-08-20T16:38:39.689Z,97611.00
2022-08-20T16:41:15.327Z,97609.13
2022-08-20T16:43:53.449Z,97617.00
2022-08-20T16:46:28.132Z,97611.38
2022-08-20T16:49:00.670Z,97612.19
2022-08-20T16:51:38.652Z,97617.38
2022-08-20T16:54:08.175Z,97619.03
2022-08-20T16:56:40.234Z,97611.97
2022-08-20T16:59:12.620Z,97616.13
2022-08-20T17:02:07.098Z,97625.25
2022-08-20T17:04:58.716Z,97617.38
2022-08-20T17:07:33.489Z,97622.78
2022-08-20T17:10:20.419Z,97618.66
2022-08-20T17:12:57.037Z,97620.06
2022-08-20T17:15:29.769Z,97609.47
2022-08-20T17:18:17.135Z,97608.69
2022-08-20T17:20:47.044Z,97614.31
2022-08-20T17:23:18.451Z,97624.28
2022-08-20T17:25:56.818Z,97626.16
2022-08-20T17:28:25.098Z,97620.75
2022-08-20T17:30:55.151Z,97630.53
2022-08-20T17:33:30.670Z,97619.78
2022-08-20T17:36:02.419Z,97632.69
2022-08-20T17:38:40.050Z,97629.25
2022-08-20T17:41:17.264Z,97629.69
2022-08-20T17:43:46.617Z,97622.25
2022-08-20T17:46:17.867Z,97630.00
2022-08-20T17:48:50.122Z,97624.44
2022-08-20T17:51:21.133Z,97627.81
2022-08-20T17:53:56.309Z,97627.41
2022-08-20T17:56:30.861Z,97629.75
2022-08-20T17:59:10.262Z,97634.13
2022-08-20T18:01:39.432Z,97636.22
2022-08-20T18:04:09.415Z,97638.31
2022-08-20T18:06:46.060Z,97642.53
2022-08-20T18:09:21.690Z,97642.13
2022-08-20T18:11:57.540Z,97637.63
2022-08-20T18:14:47.234Z,97646.38
2022-08-20T18:17:50.519Z,97643.53
2022-08-20T18:20:49.596Z,97650.63
2022-08-20T18:23:23.060Z,97651.06
2022-08-20T18:25:58.364Z,97652.56
2022-08-20T18:28:38.235Z,97654.84
2022-08-20T18:31:10.444Z,97656.97
2022-08-20T18:33:42.267Z,97650.09
2022-08-20T18:36:24.537Z,97647.03
2022-08-20T18:39:02.741Z,97654.50
2022-08-20T18:41:33.907Z,97650.16
2022-08-20T18:44:09.838Z,97649.56
2022-08-20T18:46:39.168Z,97657.06
2022-08-20T18:49:09.665Z,97659.97
2022-08-20T18:51:49.337Z,97660.41
2022-08-20T18:54:25.204Z,97658.13
2022-08-20T18:57:05.734Z,97669.13
2022-08-20T18:59:41.394Z,97665.19
2022-08-20T19:02:23.796Z,97673.72
2022-08-20T19:05:02.122Z,97669.81
2022-08-20T19:07:45.781Z,97668.59
2022-08-20T19:10:40.925Z,97678.13
2022-08-20T19:13:46.102Z,97683.16
2022-08-20T19:16:20.810Z,97685.22
2022-08-20T19:18:54.095Z,97684.63
2022-08-20T19:21:27.557Z,97681.09
2022-08-20T19:24:02.760Z,97681.31
2022-08-20T19:26:34.616Z,97677.78
2022-08-20T19:29:10.584Z,97676.16
2022-08-20T19:31:39.106Z,97670.13
2022-08-20T19:34:20.209Z,97667.66
2022-08-20T19:36:57.525Z,97669.75
2022-08-20T19:39:29.826Z,97670.97
2022-08-20T19:42:03.683Z,97670.41
2022-08-20T19:44:38.264Z,97662.50
2022-08-20T19:47:15.672Z,97660.25
2022-08-20T19:49:59.799Z,97660.47
2022-08-20T19:52:41.069Z,97646.34
2022-08-20T19:55:22.005Z,97649.28
2022-08-20T19:57:57.627Z,97651.13
2022-08-20T20:00:29.577Z,97644.09
2022-08-20T20:02:58.457Z,97639.53
2022-08-20T20:05:27.058Z,97646.78
2022-08-20T20:08:00.102Z,97648.06
2022-08-20T20:10:34.744Z,97651.56
2022-08-20T20:13:09.976Z,97649.91
2022-08-20T20:15:39.607Z,97663.38
2022-08-20T20:18:09.210Z,97658.22
2022-08-20T20:20:50.288Z,97669.41
2022-08-20T20:23:45.694Z,97668.59
2022-08-20T20:26:19.867Z,97672.34
2022-08-20T20:28:52.934Z,97668.00
2022-08-20T20:31:26.233Z,97663.63
2022-08-20T20:33:58.487Z,97658.44
2022-08-20T20:36:37.739Z,97649.94
2022-08-20T20:39:14.157Z,97649.75
2022-08-20T20:41:53.378Z,97648.47
2022-08-20T20:44:26.140Z,97649.31
2022-08-20T20:46:59.445Z,97650.38
2022-08-20T20:49:32.927Z,97646.84
2022-08-20T20:52:06.149Z,97654.06
2022-08-20T20:54:46.374Z,97652.44
2022-08-20T20:57:37.875Z,97654.50
2022-08-20T21:00:12.474Z,97644.78
2022-08-20T21:02:41.500Z,97648.31
2022-08-20T21:05:11.581Z,97641.47
2022-08-20T21:07:50.654Z,97645.19
2022-08-20T21:10:21.888Z,97634.63
2022-08-20T21:12:53.240Z,97638.59
2022-08-20T21:15:25.590Z,97635.28
2022-08-20T21:17:54.990Z,97646.03
2022-08-20T21:20:23.938Z,97642.75
2022-08-20T21:22:52.403Z,97637.59
2022-08-20T21:25:21.392Z,97635.09
2022-08-20T21:27:53.389Z,97640.69
2022-08-20T21:30:23.693Z,97644.63
2022-08-20T21:32:52.399Z,97641.94
2022-08-20T21:35:21.314Z,97642.97
2022-08-20T21:37:50.071Z,97635.94
2022-08-20T21:40:21.677Z,97640.50
2022-08-20T21:42:52.156Z,97632.63
2022-08-20T21:45:22.363Z,97643.63
2022-08-20T21:47:50.826Z,97640.09
2022-08-20T21:50:21.142Z,97640.50
2022-08-20T21:52:59.243Z,97644.25
2022-08-20T21:55:33.056Z,97641.75
2022-08-20T21:58:06.343Z,97645.50
2022-08-20T22:00:56.755Z,97636.16
2022-08-20T22:03:29.344Z,97635.38
2022-08-20T22:06:00.469Z,97645.31
2022-08-20T22:08:29.854Z,97650.91
2022-08-20T22:10:59.681Z,97647.16
2022-08-20T22:13:32.764Z,97648.19
2022-08-20T22:16:01.464Z,97638.25
2022-08-20T22:18:29.991Z,97639.28
2022-08-20T22:20:58.606Z,97644.88
2022-08-20T22:23:27.418Z,97640.53
2022-08-20T22:25:55.899Z,97644.06
2022-08-20T22:28:24.305Z,97641.38
2022-08-20T22:30:54.599Z,97636.22
2022-08-20T22:33:24.690Z,97639.72
2022-08-20T22:35:56.444Z,97633.50
2022-08-20T22:38:25.047Z,97638.06
2022-08-20T22:40:54.125Z,97637.22
2022-08-20T22:43:23.261Z,97634.53
2022-08-20T22:45:56.876Z,97631.84
2022-08-20T22:48:25.330Z,97633.50
2022-08-20T22:50:54.513Z,97628.34
2022-08-20T22:53:26.131Z,97626.44
2022-08-20T22:55:55.306Z,97627.28
2022-08-20T22:58:31.215Z,97629.97
2022-08-20T23:01:04.850Z,97630.81
2022-08-20T23:03:39.584Z,97627.28
2022-08-20T23:06:10.532Z,97632.03
2022-08-20T23:08:39.681Z,97626.44
2022-08-20T23:11:08.451Z,97622.94
2022-08-20T23:13:36.864Z,97621.06
2022-08-20T23:16:08.299Z,97620.25
2022-08-20T23:18:36.691Z,97613.81
2022-08-20T23:21:05.434Z,97611.13
2022-08-20T23:23:33.857Z,97615.47
2022-08-20T23:26:02.595Z,97613.59
2022-08-20T23:28:31.162Z,97604.69
2022-08-20T23:30:59.791Z,97609.06
2022-08-20T23:33:31.376Z,97602.84
2022-08-20T23:36:05.351Z,97606.56
2022-08-20T23:38:33.777Z,97599.50
2022-08-20T23:41:02.137Z,97600.56
2022-08-20T23:43:30.687Z,97594.13
2022-08-20T23:46:03.109Z,97593.75
2022-08-20T23:48:33.480Z,97600.78
2022-08-20T23:51:01.914Z,97596.22
2022-08-20T23:53:30.266Z,97591.06
2022-08-20T23:55:58.631Z,97589.59
2022-08-20T23:58:27.138Z,97586.69
